createdAt,value
2023-01-04T00:00:45.303Z,1008.36
2023-01-04T00:01:45.245Z,1008.31
2023-01-04T00:02:45.402Z,1008.24
2023-01-04T00:03:45.344Z,1008.30
2023-01-04T00:04:45.197Z,1008.29
2023-01-04T00:05:45.165Z,1008.24
2023-01-04T00:06:45.151Z,1008.28
2023-01-04T00:07:45.142Z,1008.25
2023-01-04T00:08:45.123Z,1008.22
2023-01-04T00:09:45.094Z,1008.14
2023-01-04T00:10:45.100Z,1008.17
2023-01-04T00:11:45.060Z,1008.17
2023-01-04T00:12:45.033Z,1008.09
2023-01-04T00:13:45.020Z,1008.12
2023-01-04T00:14:45.005Z,1008.17
2023-01-04T00:15:45.125Z,1008.12
2023-01-04T00:16:45.132Z,1008.14
2023-01-04T00:17:44.947Z,1008.09
2023-01-04T00:18:44.924Z,1008.06
2023-01-04T00:19:44.912Z,1008.06
2023-01-04T00:20:44.895Z,1008.01
2023-01-04T00:21:44.868Z,1007.94
2023-01-04T00:22:44.856Z,1007.90
2023-01-04T00:23:44.855Z,1007.90
2023-01-04T00:24:44.810Z,1007.90
2023-01-04T00:25:44.793Z,1007.84
2023-01-04T00:26:44.796Z,1007.88
2023-01-04T00:27:44.780Z,1007.83
2023-01-04T00:28:49.995Z,1007.78
2023-01-04T00:29:44.716Z,1007.75
2023-01-04T00:30:44.754Z,1007.70
2023-01-04T00:31:44.941Z,1007.74
2023-01-04T00:32:44.697Z,1007.73
2023-01-04T00:33:44.640Z,1007.73
2023-01-04T00:34:44.625Z,1007.69
2023-01-04T00:35:46.361Z,1007.70
2023-01-04T00:36:44.623Z,1007.66
2023-01-04T00:37:49.936Z,1007.65
2023-01-04T00:38:44.544Z,1007.64
2023-01-04T00:39:44.689Z,1007.66
2023-01-04T00:40:44.520Z,1007.64
2023-01-04T00:42:01.283Z,1007.54
2023-01-04T00:42:44.472Z,1007.48
2023-01-04T00:43:44.457Z,1007.48
2023-01-04T00:44:44.437Z,1007.49
2023-01-04T00:45:44.443Z,1007.45
2023-01-04T00:46:44.428Z,1007.46
2023-01-04T00:47:44.437Z,1007.40
2023-01-04T00:48:48.760Z,1007.35
2023-01-04T00:49:44.346Z,1007.33
2023-01-04T00:50:44.321Z,1007.25
2023-01-04T00:51:44.311Z,1007.29
2023-01-04T00:52:44.283Z,1007.23
2023-01-04T00:53:44.322Z,1007.23
2023-01-04T00:54:44.246Z,1007.24
2023-01-04T00:55:44.231Z,1007.24
2023-01-04T00:56:44.221Z,1007.23
2023-01-04T00:57:44.194Z,1007.20
2023-01-04T00:58:44.170Z,1007.16
2023-01-04T00:59:44.169Z,1007.15
2023-01-04T01:00:44.141Z,1007.13
2023-01-04T01:01:44.268Z,1007.07
2023-01-04T01:02:44.385Z,1007.13
2023-01-04T01:03:44.131Z,1007.04
2023-01-04T01:04:44.131Z,1007.00
2023-01-04T01:05:44.053Z,1006.98
2023-01-04T01:06:44.022Z,1006.94
2023-01-04T01:07:44.006Z,1006.89
2023-01-04T01:08:43.983Z,1006.90
2023-01-04T01:09:43.968Z,1006.93
2023-01-04T01:10:43.991Z,1006.87
2023-01-04T01:11:43.998Z,1006.91
2023-01-04T01:12:43.913Z,1006.89
2023-01-04T01:13:43.892Z,1006.92
2023-01-04T01:14:43.869Z,1006.87
2023-01-04T01:15:43.894Z,1006.83
2023-01-04T01:16:59.415Z,1006.91
2023-01-04T01:17:43.819Z,1006.87
2023-01-04T01:18:43.800Z,1006.81
2023-01-04T01:19:43.789Z,1006.86
2023-01-04T01:20:43.768Z,1006.80
2023-01-04T01:21:43.796Z,1006.79
2023-01-04T01:22:43.725Z,1006.76
2023-01-04T01:23:43.730Z,1006.81
2023-01-04T01:24:43.690Z,1006.76
2023-01-04T01:25:43.674Z,1006.73
2023-01-04T01:26:43.652Z,1006.72
2023-01-04T01:27:43.659Z,1006.73
2023-01-04T01:28:43.609Z,1006.71
2023-01-04T01:29:43.596Z,1006.64
2023-01-04T01:30:43.640Z,1006.57
2023-01-04T01:31:43.625Z,1006.62
2023-01-04T01:32:43.566Z,1006.57
2023-01-04T01:33:43.521Z,1006.53
2023-01-04T01:34:43.502Z,1006.55
2023-01-04T01:35:43.488Z,1006.53
2023-01-04T01:36:43.464Z,1006.57
2023-01-04T01:37:43.511Z,1006.54
2023-01-04T01:38:43.426Z,1006.53
2023-01-04T01:39:43.412Z,1006.54
2023-01-04T01:40:43.434Z,1006.47
2023-01-04T01:41:43.377Z,1006.50
2023-01-04T01:42:43.372Z,1006.49
2023-01-04T01:43:43.365Z,1006.43
2023-01-04T01:44:43.330Z,1006.38
2023-01-04T01:45:43.298Z,1006.43
2023-01-04T01:46:43.386Z,1006.37
2023-01-04T01:47:43.264Z,1006.32
2023-01-04T01:48:43.287Z,1006.28
2023-01-04T01:49:43.225Z,1006.34
2023-01-04T01:50:43.214Z,1006.28
2023-01-04T01:51:43.193Z,1006.23
2023-01-04T01:52:43.201Z,1006.23
2023-01-04T01:53:43.152Z,1006.22
2023-01-04T01:54:43.132Z,1006.20
2023-01-04T01:55:43.122Z,1006.22
2023-01-04T01:56:43.095Z,1006.23
2023-01-04T01:57:43.116Z,1006.17
2023-01-04T01:58:43.060Z,1006.15
2023-01-04T01:59:43.043Z,1006.08
2023-01-04T02:00:43.025Z,1005.98
2023-01-04T02:01:43.121Z,1005.97
2023-01-04T02:02:43.242Z,1005.93
2023-01-04T02:03:43.001Z,1006.03
2023-01-04T02:04:42.946Z,1005.89
2023-01-04T02:05:42.935Z,1005.90
2023-01-04T02:06:42.927Z,1005.90
2023-01-04T02:07:42.894Z,1005.85
2023-01-04T02:08:42.877Z,1005.79
2023-01-04T02:09:42.858Z,1005.85
2023-01-04T02:10:42.849Z,1005.82
2023-01-04T02:11:42.857Z,1005.76
2023-01-04T02:12:42.801Z,1005.83
2023-01-04T02:13:42.835Z,1005.76
2023-01-04T02:14:42.766Z,1005.74
2023-01-04T02:15:42.801Z,1005.81
2023-01-04T02:16:42.728Z,1005.71
2023-01-04T02:17:42.710Z,1005.71
2023-01-04T02:18:42.716Z,1005.71
2023-01-04T02:19:42.679Z,1005.73
2023-01-04T02:20:42.651Z,1005.72
2023-01-04T02:21:42.638Z,1005.70
2023-01-04T02:22:42.668Z,1005.63
2023-01-04T02:23:42.630Z,1005.66
2023-01-04T02:24:42.579Z,1005.63
2023-01-04T02:25:42.560Z,1005.65
2023-01-04T02:26:42.573Z,1005.61
2023-01-04T02:27:42.558Z,1005.58
2023-01-04T02:28:42.533Z,1005.56
2023-01-04T02:29:42.497Z,1005.53
2023-01-04T02:30:42.473Z,1005.45
2023-01-04T02:31:42.548Z,1005.46
2023-01-04T02:32:42.430Z,1005.40
2023-01-04T02:33:42.463Z,1005.36
2023-01-04T02:34:42.393Z,1005.32
2023-01-04T02:35:42.376Z,1005.36
2023-01-04T02:36:42.361Z,1005.25
2023-01-04T02:37:42.340Z,1005.19
2023-01-04T02:38:42.319Z,1005.25
2023-01-04T02:39:42.316Z,1005.14
2023-01-04T02:40:42.288Z,1005.12
2023-01-04T02:41:42.267Z,1005.11
2023-01-04T02:42:42.268Z,1005.05
2023-01-04T02:43:42.255Z,1004.98
2023-01-04T02:44:42.236Z,1005.02
2023-01-04T02:45:42.229Z,1005.03
2023-01-04T02:46:42.278Z,1004.99
2023-01-04T02:47:42.155Z,1004.99
2023-01-04T02:48:42.131Z,1005.05
2023-01-04T02:49:42.123Z,1005.03
2023-01-04T02:50:42.110Z,1005.04
2023-01-04T02:51:42.112Z,1004.99
2023-01-04T02:52:42.059Z,1004.97
2023-01-04T02:53:42.045Z,1004.96
2023-01-04T02:54:42.033Z,1004.98
2023-01-04T02:55:42.058Z,1004.89
2023-01-04T02:56:42.057Z,1004.93
2023-01-04T02:57:41.996Z,1004.93
2023-01-04T02:58:41.976Z,1004.92
2023-01-04T02:59:41.972Z,1004.82
2023-01-04T03:00:41.914Z,1004.90
2023-01-04T03:01:41.949Z,1004.82
2023-01-04T03:02:42.049Z,1004.75
2023-01-04T03:03:42.057Z,1004.72
2023-01-04T03:04:41.836Z,1004.68
2023-01-04T03:05:41.826Z,1004.74
2023-01-04T03:06:41.834Z,1004.56
2023-01-04T03:07:41.789Z,1004.61
2023-01-04T03:08:41.815Z,1004.61
2023-01-04T03:09:41.762Z,1004.46
2023-01-04T03:10:41.761Z,1004.52
2023-01-04T03:11:41.733Z,1004.54
2023-01-04T03:12:41.690Z,1004.48
2023-01-04T03:13:41.669Z,1004.47
2023-01-04T03:14:41.706Z,1004.42
2023-01-04T03:15:41.649Z,1004.42
2023-01-04T03:16:41.654Z,1004.54
2023-01-04T03:17:41.621Z,1004.45
2023-01-04T03:18:41.610Z,1004.34
2023-01-04T03:19:41.557Z,1004.34
2023-01-04T03:20:41.571Z,1004.37
2023-01-04T03:21:41.520Z,1004.31
2023-01-04T03:22:41.500Z,1004.32
2023-01-04T03:23:41.484Z,1004.34
2023-01-04T03:24:41.467Z,1004.22
2023-01-04T03:25:41.490Z,1004.19
2023-01-04T03:26:41.519Z,1004.20
2023-01-04T03:27:41.409Z,1004.15
2023-01-04T03:28:41.394Z,1004.20
2023-01-04T03:29:41.380Z,1004.21
2023-01-04T03:30:41.380Z,1004.08
2023-01-04T03:31:41.407Z,1004.02
2023-01-04T03:32:41.313Z,1003.99
2023-01-04T03:33:41.301Z,1003.95
2023-01-04T03:34:41.293Z,1003.90
2023-01-04T03:35:41.408Z,1003.87
2023-01-04T03:36:41.286Z,1004.03
2023-01-04T03:37:41.227Z,1004.00
2023-01-04T03:38:41.205Z,1003.86
2023-01-04T03:39:41.248Z,1003.87
2023-01-04T03:40:41.178Z,1003.82
2023-01-04T03:41:41.159Z,1003.84
2023-01-04T03:42:41.170Z,1003.80
2023-01-04T03:43:41.119Z,1003.81
2023-01-04T03:44:41.087Z,1003.77
2023-01-04T03:45:41.083Z,1003.74
2023-01-04T03:46:41.127Z,1003.69
2023-01-04T03:47:41.050Z,1003.70
2023-01-04T03:48:41.016Z,1003.71
2023-01-04T03:49:41.001Z,1003.61
2023-01-04T03:50:40.980Z,1003.55
2023-01-04T03:51:40.973Z,1003.60
2023-01-04T03:52:40.954Z,1003.56
2023-01-04T03:53:40.926Z,1003.54
2023-01-04T03:54:40.904Z,1003.50
2023-01-04T03:55:40.889Z,1003.54
2023-01-04T03:56:40.865Z,1003.45
2023-01-04T03:57:40.952Z,1003.51
2023-01-04T03:58:40.831Z,1003.42
2023-01-04T03:59:40.817Z,1003.45
2023-01-04T04:00:40.846Z,1003.45
2023-01-04T04:01:40.884Z,1003.42
2023-01-04T04:02:40.754Z,1003.44
2023-01-04T04:03:40.781Z,1003.46
2023-01-04T04:04:40.719Z,1003.45
2023-01-04T04:05:40.747Z,1003.41
2023-01-04T04:06:40.679Z,1003.43
2023-01-04T04:07:40.662Z,1003.32
2023-01-04T04:08:40.700Z,1003.42
2023-01-04T04:09:40.625Z,1003.36
2023-01-04T04:10:40.612Z,1003.34
2023-01-04T04:11:40.597Z,1003.31
2023-01-04T04:12:40.570Z,1003.25
2023-01-04T04:13:40.583Z,1003.28
2023-01-04T04:14:40.555Z,1003.24
2023-01-04T04:15:40.514Z,1003.32
2023-01-04T04:16:40.562Z,1003.12
2023-01-04T04:17:40.482Z,1003.22
2023-01-04T04:18:40.462Z,1003.19
2023-01-04T04:19:40.488Z,1003.14
2023-01-04T04:20:40.473Z,1003.19
2023-01-04T04:21:40.614Z,1003.12
2023-01-04T04:22:40.380Z,1003.07
2023-01-04T04:23:40.358Z,1003.08
2023-01-04T04:24:40.341Z,1003.11
2023-01-04T04:25:40.326Z,1003.02
2023-01-04T04:26:40.307Z,1002.95
2023-01-04T04:27:40.293Z,1002.96
2023-01-04T04:28:40.271Z,1002.91
2023-01-04T04:29:40.253Z,1002.91
2023-01-04T04:30:40.289Z,1002.93
2023-01-04T04:31:40.313Z,1002.85
2023-01-04T04:32:40.211Z,1002.90
2023-01-04T04:33:40.197Z,1002.93
2023-01-04T04:34:40.154Z,1002.85
2023-01-04T04:35:40.147Z,1002.90
2023-01-04T04:36:40.146Z,1002.80
2023-01-04T04:37:40.098Z,1002.71
2023-01-04T04:38:40.087Z,1002.65
2023-01-04T04:39:40.055Z,1002.60
2023-01-04T04:40:40.076Z,1002.75
2023-01-04T04:41:40.046Z,1002.70
2023-01-04T04:42:40.050Z,1002.73
2023-01-04T04:43:39.999Z,1002.72
2023-01-04T04:44:40.019Z,1002.73
2023-01-04T04:45:39.975Z,1002.72
2023-01-04T04:46:39.940Z,1002.76
2023-01-04T04:47:39.905Z,1002.59
2023-01-04T04:48:39.891Z,1002.65
2023-01-04T04:49:39.868Z,1002.68
2023-01-04T04:50:39.850Z,1002.54
2023-01-04T04:51:39.835Z,1002.53
2023-01-04T04:52:39.831Z,1002.55
2023-01-04T04:53:39.812Z,1002.66
2023-01-04T04:54:39.786Z,1002.61
2023-01-04T04:55:39.788Z,1002.53
2023-01-04T04:56:39.752Z,1002.54
2023-01-04T04:57:39.714Z,1002.46
2023-01-04T04:58:39.698Z,1002.36
2023-01-04T04:59:39.694Z,1002.49
2023-01-04T05:00:39.720Z,1002.43
2023-01-04T05:01:39.811Z,1002.46
2023-01-04T05:02:39.814Z,1002.37
2023-01-04T05:03:39.676Z,1002.43
2023-01-04T05:04:39.584Z,1002.56
2023-01-04T05:05:39.565Z,1002.44
2023-01-04T05:06:39.577Z,1002.39
2023-01-04T05:07:39.529Z,1002.35
2023-01-04T05:08:39.515Z,1002.36
2023-01-04T05:09:39.522Z,1002.40
2023-01-04T05:10:39.472Z,1002.46
2023-01-04T05:11:39.481Z,1002.41
2023-01-04T05:12:39.660Z,1002.48
2023-01-04T05:13:39.570Z,1002.39
2023-01-04T05:14:39.399Z,1002.30
2023-01-04T05:15:39.817Z,1002.34
2023-01-04T05:16:39.422Z,1002.34
2023-01-04T05:17:39.359Z,1002.35
2023-01-04T05:18:39.324Z,1002.31
2023-01-04T05:19:39.306Z,1002.36
2023-01-04T05:20:39.287Z,1002.37
2023-01-04T05:21:39.292Z,1002.19
2023-01-04T05:22:39.249Z,1002.22
2023-01-04T05:23:39.255Z,1002.17
2023-01-04T05:24:39.246Z,1002.21
2023-01-04T05:25:39.189Z,1002.11
2023-01-04T05:26:39.184Z,1002.16
2023-01-04T05:27:39.186Z,1002.07
2023-01-04T05:28:39.139Z,1002.03
2023-01-04T05:29:39.117Z,1002.08
2023-01-04T05:30:39.129Z,1002.10
2023-01-04T05:31:39.128Z,1001.99
2023-01-04T05:32:39.091Z,1001.87
2023-01-04T05:33:39.045Z,1002.01
2023-01-04T05:34:39.048Z,1001.95
2023-01-04T05:35:39.043Z,1001.92
2023-01-04T05:36:38.990Z,1001.93
2023-01-04T05:37:38.971Z,1001.92
2023-01-04T05:38:38.959Z,1001.91
2023-01-04T05:39:38.932Z,1001.92
2023-01-04T05:40:38.945Z,1001.86
2023-01-04T05:41:38.895Z,1001.79
2023-01-04T05:42:38.877Z,1001.82
2023-01-04T05:43:38.856Z,1001.88
2023-01-04T05:44:38.869Z,1001.83
2023-01-04T05:45:38.910Z,1001.88
2023-01-04T05:46:38.809Z,1001.81
2023-01-04T05:47:38.785Z,1001.76
2023-01-04T05:48:38.792Z,1001.81
2023-01-04T05:49:38.768Z,1001.85
2023-01-04T05:50:38.729Z,1001.69
2023-01-04T05:51:38.737Z,1001.62
2023-01-04T05:52:38.721Z,1001.72
2023-01-04T05:53:38.700Z,1001.67
2023-01-04T05:54:38.652Z,1001.54
2023-01-04T05:55:38.674Z,1001.67
2023-01-04T05:56:38.627Z,1001.71
2023-01-04T05:57:38.602Z,1001.65
2023-01-04T05:58:38.583Z,1001.67
2023-01-04T05:59:41.821Z,1001.66
2023-01-04T06:00:38.580Z,1001.60
2023-01-04T06:01:38.592Z,1001.57
2023-01-04T06:02:38.663Z,1001.57
2023-01-04T06:03:38.687Z,1001.61
2023-01-04T06:04:38.467Z,1001.53
2023-01-04T06:05:38.538Z,1001.61
2023-01-04T06:06:38.449Z,1001.43
2023-01-04T06:07:38.420Z,1001.53
2023-01-04T06:08:38.408Z,1001.43
2023-01-04T06:09:38.402Z,1001.42
2023-01-04T06:10:38.368Z,1001.41
2023-01-04T06:11:38.379Z,1001.53
2023-01-04T06:12:38.329Z,1001.51
2023-01-04T06:13:38.339Z,1001.54
2023-01-04T06:14:38.284Z,1001.47
2023-01-04T06:15:43.061Z,1001.31
2023-01-04T06:16:38.307Z,1001.39
2023-01-04T06:17:38.267Z,1001.40
2023-01-04T06:18:38.219Z,1001.36
2023-01-04T06:19:38.189Z,1001.24
2023-01-04T06:20:38.199Z,1001.38
2023-01-04T06:21:38.151Z,1001.23
2023-01-04T06:22:38.143Z,1001.31
2023-01-04T06:23:38.128Z,1001.37
2023-01-04T06:24:38.100Z,1001.30
2023-01-04T06:25:38.120Z,1001.22
2023-01-04T06:26:38.060Z,1001.12
2023-01-04T06:27:38.056Z,1001.20
2023-01-04T06:28:40.942Z,1001.19
2023-01-04T06:29:38.007Z,1001.35
2023-01-04T06:30:38.118Z,1001.28
2023-01-04T06:31:37.971Z,1001.26
2023-01-04T06:32:37.952Z,1001.22
2023-01-04T06:33:37.982Z,1001.38
2023-01-04T06:34:37.911Z,1001.32
2023-01-04T06:35:37.897Z,1001.31
2023-01-04T06:36:37.890Z,1001.45
2023-01-04T06:37:37.853Z,1001.38
2023-01-04T06:38:37.837Z,1001.28
2023-01-04T06:39:37.850Z,1001.18
2023-01-04T06:40:37.806Z,1001.23
2023-01-04T06:41:37.801Z,1001.12
2023-01-04T06:42:37.772Z,1001.27
2023-01-04T06:43:37.746Z,1001.35
2023-01-04T06:44:37.726Z,1001.21
2023-01-04T06:45:37.720Z,1001.11
2023-01-04T06:46:37.746Z,1001.37
2023-01-04T06:47:37.681Z,1001.25
2023-01-04T06:48:37.662Z,1001.29
2023-01-04T06:49:37.652Z,1001.35
2023-01-04T06:50:37.667Z,1001.28
2023-01-04T06:51:37.633Z,1001.32
2023-01-04T06:52:37.638Z,1001.25
2023-01-04T06:53:37.570Z,1001.20
2023-01-04T06:54:37.577Z,1001.20
2023-01-04T06:55:37.553Z,1001.22
2023-01-04T06:56:37.506Z,1001.18
2023-01-04T06:57:37.495Z,1001.03
2023-01-04T06:58:37.471Z,1001.15
2023-01-04T06:59:37.449Z,1001.14
2023-01-04T07:00:37.431Z,1001.11
2023-01-04T07:01:37.547Z,1001.16
2023-01-04T07:02:37.587Z,1001.08
2023-01-04T07:03:37.377Z,1001.05
2023-01-04T07:04:37.406Z,1001.07
2023-01-04T07:05:37.349Z,1001.12
2023-01-04T07:06:37.319Z,1001.00
2023-01-04T07:07:37.327Z,1001.01
2023-01-04T07:08:37.341Z,1001.04
2023-01-04T07:09:37.272Z,1001.03
2023-01-04T07:10:37.268Z,1000.95
2023-01-04T07:11:37.228Z,1001.06
2023-01-04T07:12:37.210Z,1000.99
2023-01-04T07:13:37.194Z,1001.03
2023-01-04T07:14:37.177Z,1000.98
2023-01-04T07:15:40.725Z,1000.95
2023-01-04T07:16:37.239Z,1000.95
2023-01-04T07:17:37.113Z,1000.91
2023-01-04T07:18:37.102Z,1000.85
2023-01-04T07:19:37.135Z,1000.88
2023-01-04T07:20:37.068Z,1000.79
2023-01-04T07:21:37.052Z,1000.91
2023-01-04T07:22:37.060Z,1000.92
2023-01-04T07:23:37.011Z,1000.94
2023-01-04T07:24:36.996Z,1000.97
2023-01-04T07:25:37.013Z,1000.94
2023-01-04T07:26:36.977Z,1001.01
2023-01-04T07:27:36.941Z,1000.83
2023-01-04T07:28:36.915Z,1000.95
2023-01-04T07:29:36.895Z,1000.81
2023-01-04T07:30:37.012Z,1000.98
2023-01-04T07:31:36.918Z,1000.89
2023-01-04T07:32:36.843Z,1000.83
2023-01-04T07:33:36.824Z,1000.98
2023-01-04T07:34:36.815Z,1000.81
2023-01-04T07:35:36.796Z,1000.83
2023-01-04T07:36:36.822Z,1001.00
2023-01-04T07:37:36.749Z,1000.93
2023-01-04T07:38:36.743Z,1000.98
2023-01-04T07:39:36.714Z,1000.96
2023-01-04T07:40:36.714Z,1001.04
2023-01-04T07:41:36.673Z,1000.94
2023-01-04T07:42:36.663Z,1000.90
2023-01-04T07:43:36.645Z,1000.99
2023-01-04T07:44:36.631Z,1001.06
2023-01-04T07:45:36.599Z,1000.99
2023-01-04T07:46:36.735Z,1001.11
2023-01-04T07:47:36.592Z,1001.04
2023-01-04T07:48:36.549Z,1001.13
2023-01-04T07:49:36.529Z,1001.03
2023-01-04T07:50:36.518Z,1000.93
2023-01-04T07:51:36.541Z,1000.96
2023-01-04T07:52:36.560Z,1001.03
2023-01-04T07:53:36.540Z,1001.02
2023-01-04T07:54:36.494Z,1001.04
2023-01-04T07:55:36.426Z,1000.95
2023-01-04T07:56:36.467Z,1000.98
2023-01-04T07:57:36.413Z,1001.10
2023-01-04T07:58:36.377Z,1001.12
2023-01-04T07:59:36.350Z,1001.07
2023-01-04T08:00:36.325Z,1000.96
2023-01-04T08:01:36.367Z,1000.84
2023-01-04T08:02:36.408Z,1000.91
2023-01-04T08:03:36.277Z,1000.93
2023-01-04T08:04:36.305Z,1000.88
2023-01-04T08:05:36.287Z,1000.92
2023-01-04T08:06:36.276Z,1000.95
2023-01-04T08:07:36.244Z,1000.81
2023-01-04T08:08:36.181Z,1000.85
2023-01-04T08:09:36.164Z,1000.80
2023-01-04T08:10:36.154Z,1000.85
2023-01-04T08:11:36.140Z,1000.76
2023-01-04T08:12:36.135Z,1000.73
2023-01-04T08:13:36.095Z,1000.82
2023-01-04T08:14:36.072Z,1000.79
2023-01-04T08:15:36.076Z,1000.65
2023-01-04T08:16:36.122Z,1000.65
2023-01-04T08:17:36.040Z,1000.73
2023-01-04T08:18:36.004Z,1000.70
2023-01-04T08:19:35.978Z,1000.67
2023-01-04T08:20:35.965Z,1000.59
2023-01-04T08:21:35.960Z,1000.71
2023-01-04T08:22:35.956Z,1000.67
2023-01-04T08:23:35.908Z,1000.67
2023-01-04T08:24:35.907Z,1000.70
2023-01-04T08:25:35.872Z,1000.57
2023-01-04T08:26:35.875Z,1000.60
2023-01-04T08:27:35.870Z,1000.60
2023-01-04T08:28:35.816Z,1000.49
2023-01-04T08:29:35.846Z,1000.58
2023-01-04T08:30:35.781Z,1000.58
2023-01-04T08:31:35.884Z,1000.61
2023-01-04T08:32:35.753Z,1000.58
2023-01-04T08:33:35.725Z,1000.73
2023-01-04T08:34:35.708Z,1000.65
2023-01-04T08:35:35.692Z,1000.68
2023-01-04T08:36:35.679Z,1000.66
2023-01-04T08:37:35.699Z,1000.66
2023-01-04T08:39:01.859Z,1000.71
2023-01-04T08:39:35.619Z,1000.66
2023-01-04T08:41:00.147Z,1000.61
2023-01-04T08:42:35.597Z,1000.78
2023-01-04T08:43:35.593Z,1000.64
2023-01-04T08:44:35.643Z,1000.63
2023-01-04T08:45:35.570Z,1000.64
2023-01-04T08:46:35.638Z,1000.69
2023-01-04T08:47:35.480Z,1000.73
2023-01-04T08:48:35.485Z,1000.62
2023-01-04T08:49:35.448Z,1000.62
2023-01-04T08:50:35.419Z,1000.62
2023-01-04T08:51:35.422Z,1000.66
2023-01-04T08:52:35.409Z,1000.64
2023-01-04T08:53:35.398Z,1000.72
2023-01-04T08:54:35.361Z,1000.58
2023-01-04T08:55:35.348Z,1000.58
2023-01-04T08:56:35.321Z,1000.60
2023-01-04T08:57:35.324Z,1000.61
2023-01-04T08:58:35.290Z,1000.73
2023-01-04T08:59:35.262Z,1000.64
2023-01-04T09:00:35.236Z,1000.73
2023-01-04T09:01:35.343Z,1000.56
2023-01-04T09:02:35.344Z,1000.54
2023-01-04T09:03:35.212Z,1000.58
2023-01-04T09:04:35.238Z,1000.58
2023-01-04T09:05:35.185Z,1000.40
2023-01-04T09:06:35.148Z,1000.46
2023-01-04T09:07:35.113Z,1000.43
2023-01-04T09:08:35.120Z,1000.37
2023-01-04T09:09:35.080Z,1000.49
2023-01-04T09:10:35.057Z,1000.44
2023-01-04T09:11:35.047Z,1000.45
2023-01-04T09:12:35.053Z,1000.46
2023-01-04T09:13:35.007Z,1000.48
2023-01-04T09:14:34.987Z,1000.30
2023-01-04T09:15:34.985Z,1000.25
2023-01-04T09:16:35.062Z,1000.29
2023-01-04T09:17:34.985Z,1000.28
2023-01-04T09:18:34.921Z,1000.25
2023-01-04T09:19:34.898Z,1000.19
2023-01-04T09:20:34.880Z,1000.12
2023-01-04T09:21:34.915Z,1000.17
2023-01-04T09:22:34.962Z,1000.15
2023-01-04T09:23:34.885Z,1000.20
2023-01-04T09:24:34.801Z,1000.16
2023-01-04T09:25:34.795Z,1000.19
2023-01-04T09:26:34.782Z,1000.17
2023-01-04T09:27:34.749Z,1000.14
2023-01-04T09:28:34.728Z,1000.14
2023-01-04T09:29:34.724Z,1000.22
2023-01-04T09:30:34.730Z,1000.16
2023-01-04T09:31:34.765Z,1000.14
2023-01-04T09:32:34.656Z,1000.36
2023-01-04T09:34:11.492Z,1000.15
2023-01-04T09:34:34.646Z,1000.14
2023-01-04T09:35:34.607Z,1000.11
2023-01-04T09:36:34.586Z,1000.13
2023-01-04T09:37:34.587Z,1000.16
2023-01-04T09:38:34.576Z,1000.13
2023-01-04T09:39:34.539Z,1000.19
2023-01-04T09:40:34.512Z,1000.18
2023-01-04T09:41:34.500Z,1000.19
2023-01-04T09:42:37.539Z,1000.15
2023-01-04T09:43:34.471Z,1000.12
2023-01-04T09:45:12.322Z,1000.12
2023-01-04T09:45:34.427Z,1000.03
2023-01-04T09:46:34.466Z,1000.07
2023-01-04T09:47:34.432Z,1000.05
2023-01-04T09:48:34.368Z,1000.09
2023-01-04T09:49:34.359Z,1000.12
2023-01-04T09:50:34.333Z,1000.12
2023-01-04T09:51:34.317Z,1000.02
2023-01-04T09:52:34.298Z,1000.02
2023-01-04T09:53:34.284Z,1000.07
2023-01-04T09:54:34.274Z,999.96
2023-01-04T09:55:39.014Z,1000.03
2023-01-04T09:56:34.231Z,999.97
2023-01-04T09:57:34.222Z,1000.01
2023-01-04T09:58:34.206Z,1000.07
2023-01-04T09:59:34.203Z,999.94
2023-01-04T10:00:37.412Z,999.96
2023-01-04T10:01:34.273Z,1000.00
2023-01-04T10:02:34.501Z,999.96
2023-01-04T10:03:34.179Z,999.96
2023-01-04T10:04:34.111Z,999.86
2023-01-04T10:05:34.083Z,999.85
2023-01-04T10:06:34.058Z,999.88
2023-01-04T10:07:34.033Z,999.79
2023-01-04T10:08:34.070Z,999.90
2023-01-04T10:09:34.037Z,999.83
2023-01-04T10:10:33.976Z,999.84
2023-01-04T10:11:33.961Z,999.85
2023-01-04T10:12:33.945Z,999.87
2023-01-04T10:13:33.927Z,999.92
2023-01-04T10:14:33.943Z,999.77
2023-01-04T10:15:33.900Z,999.92
2023-01-04T10:17:01.773Z,999.82
2023-01-04T10:18:33.891Z,999.84
2023-01-04T10:20:16.327Z,999.77
2023-01-04T10:21:34.716Z,999.79
2023-01-04T10:22:33.781Z,999.70
2023-01-04T10:23:33.780Z,999.70
2023-01-04T10:24:33.758Z,999.68
2023-01-04T10:25:33.727Z,999.66
2023-01-04T10:26:33.697Z,999.74
2023-01-04T10:27:37.838Z,999.72
2023-01-04T10:28:33.694Z,999.63
2023-01-04T10:29:33.716Z,999.72
2023-01-04T10:30:33.645Z,999.63
2023-01-04T10:31:40.433Z,999.66
2023-01-04T10:32:33.643Z,999.65
2023-01-04T10:33:33.580Z,999.66
2023-01-04T10:34:33.555Z,999.63
2023-01-04T10:35:33.556Z,999.73
2023-01-04T10:36:33.526Z,999.66
2023-01-04T10:37:33.509Z,999.52
2023-01-04T10:38:33.528Z,999.63
2023-01-04T10:39:33.585Z,999.57
2023-01-04T10:40:33.456Z,999.63
2023-01-04T10:41:33.433Z,999.56
2023-01-04T10:42:33.436Z,999.59
2023-01-04T10:44:09.874Z,999.48
2023-01-04T10:44:33.406Z,999.66
2023-01-04T10:45:33.400Z,999.59
2023-01-04T10:46:33.363Z,999.60
2023-01-04T10:47:33.340Z,999.45
2023-01-04T10:48:33.314Z,999.55
2023-01-04T10:49:33.294Z,999.50
2023-01-04T10:50:33.283Z,999.46
2023-01-04T10:51:33.267Z,999.39
2023-01-04T10:52:33.255Z,999.54
2023-01-04T10:53:33.228Z,999.47
2023-01-04T10:54:33.217Z,999.49
2023-01-04T10:55:33.196Z,999.51
2023-01-04T10:56:33.187Z,999.44
2023-01-04T10:57:33.157Z,999.43
2023-01-04T10:58:33.139Z,999.55
2023-01-04T10:59:33.156Z,999.38
2023-01-04T11:00:33.124Z,999.44
2023-01-04T11:01:33.315Z,999.49
2023-01-04T11:02:33.177Z,999.36
2023-01-04T11:03:33.179Z,999.42
2023-01-04T11:04:33.041Z,999.33
2023-01-04T11:05:33.020Z,999.35
2023-01-04T11:06:33.009Z,999.24
2023-01-04T11:07:33.001Z,999.25
2023-01-04T11:08:32.965Z,999.36
2023-01-04T11:09:32.956Z,999.18
2023-01-04T11:10:32.931Z,999.16
2023-01-04T11:11:32.922Z,999.22
2023-01-04T11:12:32.926Z,999.23
2023-01-04T11:13:32.881Z,999.20
2023-01-04T11:14:37.204Z,999.21
2023-01-04T11:15:32.859Z,999.29
2023-01-04T11:16:32.920Z,999.20
2023-01-04T11:17:32.840Z,999.19
2023-01-04T11:18:32.800Z,999.27
2023-01-04T11:19:32.796Z,999.14
2023-01-04T11:20:37.696Z,999.29
2023-01-04T11:21:32.744Z,999.13
2023-01-04T11:22:32.783Z,999.08
2023-01-04T11:23:32.738Z,999.10
2023-01-04T11:24:33.487Z,999.23
2023-01-04T11:25:35.783Z,999.14
2023-01-04T11:26:32.657Z,999.07
2023-01-04T11:27:32.709Z,999.01
2023-01-04T11:28:32.624Z,999.10
2023-01-04T11:29:32.609Z,999.05
2023-01-04T11:30:32.588Z,999.03
2023-01-04T11:31:32.628Z,998.98
2023-01-04T11:32:32.557Z,999.06
2023-01-04T11:33:32.543Z,999.11
2023-01-04T11:34:32.519Z,999.00
2023-01-04T11:35:35.385Z,999.05
2023-01-04T11:36:32.486Z,999.06
2023-01-04T11:37:32.498Z,999.21
2023-01-04T11:38:32.501Z,998.91
2023-01-04T11:39:32.440Z,998.94
2023-01-04T11:40:32.415Z,999.05
2023-01-04T11:41:32.418Z,998.94
2023-01-04T11:42:32.476Z,998.92
2023-01-04T11:43:32.395Z,998.86
2023-01-04T11:44:32.356Z,998.83
2023-01-04T11:45:32.374Z,998.84
2023-01-04T11:46:32.406Z,998.84
2023-01-04T11:47:33.432Z,999.02
2023-01-04T11:48:32.316Z,998.96
2023-01-04T11:49:32.269Z,998.98
2023-01-04T11:50:32.253Z,998.80
2023-01-04T11:51:32.279Z,998.77
2023-01-04T11:52:32.227Z,998.67
2023-01-04T11:53:32.209Z,998.73
2023-01-04T11:54:32.180Z,998.75
2023-01-04T11:55:32.191Z,998.74
2023-01-04T11:56:32.177Z,998.77
2023-01-04T11:57:32.129Z,998.55
2023-01-04T11:58:32.109Z,998.74
2023-01-04T11:59:32.096Z,998.57
2023-01-04T12:00:32.105Z,998.62
2023-01-04T12:01:32.133Z,998.60
2023-01-04T12:03:02.391Z,998.58
2023-01-04T12:03:32.058Z,998.56
2023-01-04T12:04:35.541Z,998.66
2023-01-04T12:05:31.995Z,998.64
2023-01-04T12:06:31.977Z,998.61
2023-01-04T12:07:31.964Z,998.57
2023-01-04T12:08:31.952Z,998.66
2023-01-04T12:09:31.985Z,998.58
2023-01-04T12:10:31.931Z,998.46
2023-01-04T12:11:31.895Z,998.53
2023-01-04T12:12:31.872Z,998.54